Davis Sea — WDC2883 — position and weather

sailwx.info

Track history (hours):
 
Tides and Currents Weather Stations Pressure Air Temp Water Temp Dewpoint Dewpoint Depression Visibility Wind Speed Wind Dir Waves Ship Positions

Davis Sea

Owner: Kirby Offshore Marine, LLC, Staten Island, NY. More information available from US FCC via Universal Licensing System and Coast Guard Vessel Documentation Center.

Last reported at 2016-Jun-28 14:21 UTC. Time now 2016-Sep-29 15:22 UTC.
Position N 29°46' W 095°07'.
Warning: this ship's position is months out of date.

Length 27 m; draft 3.3 m.

Type: . MMSI: 367129540.

Date/timePositionNaut miles runAvg speedWind from/ knotsBaromVisibWave heightAir tempDewpointWater temp
2016-Jun-28 14:21N 29°46' W 095°07'1 0.1
2016-Jun-28 07:33N 29°46' W 095°05'0 0.3
2016-Jun-28 06:33N 29°46' W 095°05'3 0.4
2016-Jun-27 22:07N 29°44' W 095°09'3 6.0
2016-Jun-27 21:33N 29°46' W 095°05'3 0.5
2016-Jun-27 15:18N 29°44' W 095°09'4 5.6
2016-Jun-27 14:30N 29°47' W 095°05'1 0.9
2016-Jun-27 13:22N 29°47' W 095°06'3 1.8
2016-Jun-27 11:31N 29°44' W 095°03'5 5.5
2016-Jun-27 10:33N 29°41' W 094°59'  
Track history (hours):
 
Tides and Currents Weather Stations Pressure Air Temp Water Temp Dewpoint Dewpoint Depression Visibility Wind Speed Wind Dir Waves Ship Positions

Davis Sea

Owner: Kirby Offshore Marine, LLC, Staten Island, NY. More information available from US FCC via Universal Licensing System and Coast Guard Vessel Documentation Center.

Last reported at 2016-Jun-28 14:21 UTC. Time now 2016-Sep-29 15:22 UTC.
Position N 29°46' W 095°07'.
Warning: this ship's position is months out of date.

Length 27 m; draft 3.3 m.

Type: . MMSI: 367129540.

Date/timePositionNaut miles runAvg speedWind from/ knotsBaromVisibWave heightAir tempDewpointWater temp
2016-Jun-28 14:21N 29°46' W 095°07'1 0.1
2016-Jun-28 07:33N 29°46' W 095°05'0 0.3
2016-Jun-28 06:33N 29°46' W 095°05'3 0.4
2016-Jun-27 22:07N 29°44' W 095°09'3 6.0
2016-Jun-27 21:33N 29°46' W 095°05'3 0.5
2016-Jun-27 15:18N 29°44' W 095°09'4 5.6
2016-Jun-27 14:30N 29°47' W 095°05'1 0.9
2016-Jun-27 13:22N 29°47' W 095°06'3 1.8
2016-Jun-27 11:31N 29°44' W 095°03'5 5.5
2016-Jun-27 10:33N 29°41' W 094°59'  

Dump ship's entire track history